Paloma — V7NN4 — position and weather

sailwx.info

Track history (hours):
 
Tides and Currents Weather Stations Pressure Air Temp Water Temp Dewpoint Dewpoint Depression Visibility Wind Speed Wind Dir Waves Ship Positions

Paloma

Last reported at 2017-Nov-25 13:00 UTC. Time now 2017-Dec-12 06:12 UTC.
Position N 36°50' E 003°07'.
Warning: this ship's position is 16 days out of date.

Length 169 m; draft 9.2 m.

Type: Cargo ship. MMSI: 538007433.

Date/timePositionNaut miles runAvg speedWind from/ knotsBaromVisibWave heightAir tempDewpointWater temp
2017-Nov-25 13:00N 36°50' E 003°07'1 2.2
2017-Nov-25 12:28N 36°51' E 003°07'3 6.9
2017-Nov-25 12:00N 36°53' E 003°04'612.4
2017-Nov-25 11:30N 36°55' E 002°57'613.2
2017-Nov-25 11:00N 36°54' E 002°49'713.3
2017-Nov-25 10:30N 36°53' E 002°40'713.4
2017-Nov-25 10:00N 36°52' E 002°32'613.1
2017-Nov-25 09:30N 36°51' E 002°24'713.4
2017-Nov-25 09:00N 36°51' E 002°16'713.5
2017-Nov-25 08:30N 36°50' E 002°07'713.3
2017-Nov-25 08:00N 36°49' E 001°59'713.1
2017-Nov-25 07:30N 36°48' E 001°51'713.1
2017-Nov-25 07:00N 36°47' E 001°43'613.0
2017-Nov-25 06:30N 36°46' E 001°35'612.6
2017-Nov-25 06:00N 36°45' E 001°27'612.4
2017-Nov-25 05:30N 36°45' E 001°19'612.5
2017-Nov-25 05:00N 36°44' E 001°12'713.0
2017-Nov-25 04:30N 36°43' E 001°04'713.6
2017-Nov-25 04:00N 36°42' E 000°55'1313.6
2017-Nov-25 03:02N 36°40' E 000°39'513.2
2017-Nov-25 02:37N 36°40' E 000°32'213.2
2017-Nov-25 02:26N 36°39' E 000°29'713.1
2017-Nov-25 01:56N 36°38' E 000°21'1312.8
2017-Nov-25 00:54N 36°37' E 000°05'1312.5
2017-Nov-24 23:52N 36°35' W 000°11'612.4
2017-Nov-24 23:21N 36°34' W 000°19'512.3
2017-Nov-24 22:56N 36°33' W 000°26'712.2
2017-Nov-24 22:22N 36°32' W 000°34'1012.2
2017-Nov-24 21:34N 36°31' W 000°46'112.3
2017-Nov-24 21:30N 36°31' W 000°47'3712.5
2017-Nov-24 18:34N 36°26' W 001°32'513.2
2017-Nov-24 18:13N 36°25' W 001°38'313.1
2017-Nov-24 18:00N 36°25' W 001°42'16712.4
2017-Nov-24 04:31N 36°08' W 005°08'014.0
2017-Nov-24 04:30N 36°08' W 005°08'611.8
2017-Nov-24 04:00N 36°08' W 005°15'2 3.7
2017-Nov-24 03:30N 36°08' W 005°17'1 1.1
2017-Nov-24 03:00N 36°07' W 005°17'1 1.3
2017-Nov-24 02:30N 36°07' W 005°17'0 0.9
2017-Nov-24 02:00N 36°07' W 005°18'1 2.2
2017-Nov-24 01:30N 36°06' W 005°19'3 6.4
2017-Nov-24 01:00N 36°04' W 005°22'2 3.5
2017-Nov-24 00:20N 36°06' W 005°25'0 0.1
2017-Nov-23 23:59N 36°06' W 005°25'0 0.1
2017-Nov-23 23:29N 36°06' W 005°25'0 0.0
2017-Nov-23 19:53N 36°05' W 005°25'0 0.0
2017-Nov-23 15:23N 36°05' W 005°25'2 5.0
2017-Nov-23 15:00N 36°04' W 005°23'3 6.7
2017-Nov-23 14:30N 36°01' W 005°22'5 9.2
2017-Nov-23 14:00N 35°58' W 005°26'1711.8
2017-Nov-23 12:33N 35°54' W 005°46'210.7
2017-Nov-23 12:25N 35°54' W 005°48'511.6
2017-Nov-23 12:00N 35°52' W 005°53'712.2
2017-Nov-23 11:23N 35°49' W 006°02'2412.8
2017-Nov-23 09:30N 35°32' W 006°24'612.8
2017-Nov-23 09:00N 35°28' W 006°29'912.7
2017-Nov-23 08:17N 35°22' W 006°38'413.1
2017-Nov-23 07:59N 35°19' W 006°41'2413.2
2017-Nov-23 06:09N 35°03' W 007°03'212.4
2017-Nov-23 05:59N 35°01' W 007°04'612.6
2017-Nov-23 05:30N 34°57' W 007°10'612.5
2017-Nov-23 05:00N 34°53' W 007°15'612.8
2017-Nov-23 04:30N 34°49' W 007°21'612.8
2017-Nov-23 04:00N 34°44' W 007°27'713.0
2017-Nov-23 03:30N 34°40' W 007°33'2012.4
2017-Nov-23 01:53N 34°26' W 007°51'512.5
2017-Nov-23 01:30N 34°23' W 007°55'3712.7
2017-Nov-22 22:35N 33°58' W 008°28'112.6
2017-Nov-22 22:29N 33°57' W 008°29'3312.6
2017-Nov-22 19:51N 33°34' W 008°58'  
Track history (hours):
 
Tides and Currents Weather Stations Pressure Air Temp Water Temp Dewpoint Dewpoint Depression Visibility Wind Speed Wind Dir Waves Ship Positions

Paloma

Last reported at 2017-Nov-25 13:00 UTC. Time now 2017-Dec-12 06:12 UTC.
Position N 36°50' E 003°07'.
Warning: this ship's position is 16 days out of date.

Length 169 m; draft 9.2 m.

Type: Cargo ship. MMSI: 538007433.

Date/timePositionNaut miles runAvg speedWind from/ knotsBaromVisibWave heightAir tempDewpointWater temp
2017-Nov-25 13:00N 36°50' E 003°07'1 2.2
2017-Nov-25 12:28N 36°51' E 003°07'3 6.9
2017-Nov-25 12:00N 36°53' E 003°04'612.4
2017-Nov-25 11:30N 36°55' E 002°57'613.2
2017-Nov-25 11:00N 36°54' E 002°49'713.3
2017-Nov-25 10:30N 36°53' E 002°40'713.4
2017-Nov-25 10:00N 36°52' E 002°32'613.1
2017-Nov-25 09:30N 36°51' E 002°24'713.4
2017-Nov-25 09:00N 36°51' E 002°16'713.5
2017-Nov-25 08:30N 36°50' E 002°07'713.3
2017-Nov-25 08:00N 36°49' E 001°59'713.1
2017-Nov-25 07:30N 36°48' E 001°51'713.1
2017-Nov-25 07:00N 36°47' E 001°43'613.0
2017-Nov-25 06:30N 36°46' E 001°35'612.6
2017-Nov-25 06:00N 36°45' E 001°27'612.4
2017-Nov-25 05:30N 36°45' E 001°19'612.5
2017-Nov-25 05:00N 36°44' E 001°12'713.0
2017-Nov-25 04:30N 36°43' E 001°04'713.6
2017-Nov-25 04:00N 36°42' E 000°55'1313.6
2017-Nov-25 03:02N 36°40' E 000°39'513.2
2017-Nov-25 02:37N 36°40' E 000°32'213.2
2017-Nov-25 02:26N 36°39' E 000°29'713.1
2017-Nov-25 01:56N 36°38' E 000°21'1312.8
2017-Nov-25 00:54N 36°37' E 000°05'1312.5
2017-Nov-24 23:52N 36°35' W 000°11'612.4
2017-Nov-24 23:21N 36°34' W 000°19'512.3
2017-Nov-24 22:56N 36°33' W 000°26'712.2
2017-Nov-24 22:22N 36°32' W 000°34'1012.2
2017-Nov-24 21:34N 36°31' W 000°46'112.3
2017-Nov-24 21:30N 36°31' W 000°47'3712.5
2017-Nov-24 18:34N 36°26' W 001°32'513.2
2017-Nov-24 18:13N 36°25' W 001°38'313.1
2017-Nov-24 18:00N 36°25' W 001°42'16712.4
2017-Nov-24 04:31N 36°08' W 005°08'014.0
2017-Nov-24 04:30N 36°08' W 005°08'611.8
2017-Nov-24 04:00N 36°08' W 005°15'2 3.7
2017-Nov-24 03:30N 36°08' W 005°17'1 1.1
2017-Nov-24 03:00N 36°07' W 005°17'1 1.3
2017-Nov-24 02:30N 36°07' W 005°17'0 0.9
2017-Nov-24 02:00N 36°07' W 005°18'1 2.2
2017-Nov-24 01:30N 36°06' W 005°19'3 6.4
2017-Nov-24 01:00N 36°04' W 005°22'2 3.5
2017-Nov-24 00:20N 36°06' W 005°25'0 0.1
2017-Nov-23 23:59N 36°06' W 005°25'0 0.1
2017-Nov-23 23:29N 36°06' W 005°25'0 0.0
2017-Nov-23 19:53N 36°05' W 005°25'0 0.0
2017-Nov-23 15:23N 36°05' W 005°25'2 5.0
2017-Nov-23 15:00N 36°04' W 005°23'3 6.7
2017-Nov-23 14:30N 36°01' W 005°22'5 9.2
2017-Nov-23 14:00N 35°58' W 005°26'1711.8
2017-Nov-23 12:33N 35°54' W 005°46'210.7
2017-Nov-23 12:25N 35°54' W 005°48'511.6
2017-Nov-23 12:00N 35°52' W 005°53'712.2
2017-Nov-23 11:23N 35°49' W 006°02'2412.8
2017-Nov-23 09:30N 35°32' W 006°24'612.8
2017-Nov-23 09:00N 35°28' W 006°29'912.7
2017-Nov-23 08:17N 35°22' W 006°38'413.1
2017-Nov-23 07:59N 35°19' W 006°41'2413.2
2017-Nov-23 06:09N 35°03' W 007°03'212.4
2017-Nov-23 05:59N 35°01' W 007°04'612.6
2017-Nov-23 05:30N 34°57' W 007°10'612.5
2017-Nov-23 05:00N 34°53' W 007°15'612.8
2017-Nov-23 04:30N 34°49' W 007°21'612.8
2017-Nov-23 04:00N 34°44' W 007°27'713.0
2017-Nov-23 03:30N 34°40' W 007°33'2012.4
2017-Nov-23 01:53N 34°26' W 007°51'512.5
2017-Nov-23 01:30N 34°23' W 007°55'3712.7
2017-Nov-22 22:35N 33°58' W 008°28'112.6
2017-Nov-22 22:29N 33°57' W 008°29'3312.6
2017-Nov-22 19:51N 33°34' W 008°58'  

Dump ship's entire track history